Time;durP1;ratioP1;P1;durP2;ratioP2;P2;SDS_P1;SDS_P2;PMS_P1;PMS_P2;Temp;Humidity;BMP_temperature;BMP_pressure;BME280_temperature;BME280_humidity;BME280_pressure;Samples;Min_cycle;Max_cycle;Signal;HPM_P1;HPM_P2
2022/06/30 00:01:32;;;;;;;5.60;3.80;;;;;;;19.51;100.00;95930.44;4963848;28;20251;-76
2022/06/30 00:03:59;;;;;;;4.18;3.78;;;;;;;19.52;100.00;95941.09;4957719;28;20206;-76
2022/06/30 00:06:28;;;;;;;4.43;3.45;;;;;;;19.58;100.00;95942.66;4944066;28;20237;-76
2022/06/30 00:08:55;;;;;;;5.15;3.67;;;;;;;19.60;100.00;95942.34;4959310;28;20229;-76
2022/06/30 00:11:23;;;;;;;7.05;4.35;;;;;;;19.58;100.00;95944.56;4964593;28;20355;-77
2022/06/30 00:13:50;;;;;;;4.57;4.18;;;;;;;19.56;100.00;95944.06;4948757;28;20211;-76
2022/06/30 00:16:18;;;;;;;4.07;3.58;;;;;;;19.52;100.00;95948.50;4948525;28;20213;-76
2022/06/30 00:18:45;;;;;;;6.55;3.90;;;;;;;19.49;100.00;95955.38;4949820;28;20201;-76
2022/06/30 00:21:12;;;;;;;6.07;4.10;;;;;;;19.31;100.00;95947.94;4948471;28;20284;-76
2022/06/30 00:23:41;;;;;;;9.40;4.35;;;;;;;19.27;100.00;95946.91;4948435;28;20219;-76
2022/06/30 00:26:08;;;;;;;4.68;3.90;;;;;;;19.29;100.00;95947.44;4944639;28;20212;-78
2022/06/30 00:28:35;;;;;;;6.38;4.30;;;;;;;19.28;100.00;95937.59;4947409;28;20232;-76
2022/06/30 00:31:02;;;;;;;5.30;3.75;;;;;;;19.26;100.00;95940.63;4949353;28;20291;-77
2022/06/30 00:33:29;;;;;;;5.05;3.97;;;;;;;19.21;100.00;95945.38;4958534;28;20213;-76
2022/06/30 00:35:56;;;;;;;7.97;4.78;;;;;;;19.12;100.00;95955.34;4938574;28;20224;-77
2022/06/30 00:38:23;;;;;;;6.22;3.80;;;;;;;19.08;100.00;95951.56;4966805;28;20273;-77
2022/06/30 00:40:52;;;;;;;5.60;4.53;;;;;;;19.10;100.00;95944.69;4962600;28;20209;-77
2022/06/30 00:43:19;;;;;;;5.60;4.30;;;;;;;19.07;100.00;95947.19;4942911;28;20205;-76
2022/06/30 00:45:47;;;;;;;5.32;4.10;;;;;;;18.92;100.00;95944.66;4947076;28;20228;-77
2022/06/30 00:48:16;;;;;;;5.00;4.40;;;;;;;18.81;100.00;95955.72;4958494;28;20315;-76
2022/06/30 00:50:43;;;;;;;6.63;4.37;;;;;;;18.87;100.00;95949.09;4949594;28;20229;-77
2022/06/30 00:53:12;;;;;;;5.97;4.38;;;;;;;18.95;100.00;95944.06;4948918;28;20208;-76
2022/06/30 00:55:40;;;;;;;6.65;4.50;;;;;;;19.02;100.00;95945.34;4948112;28;20293;-76
2022/06/30 00:58:09;;;;;;;6.10;4.23;;;;;;;18.96;100.00;95945.69;4962759;28;20319;-76
2022/06/30 01:00:40;;;;;;;6.67;4.30;;;;;;;18.89;100.00;95944.13;4944861;28;20240;-77
2022/06/30 01:03:08;;;;;;;5.10;4.50;;;;;;;18.98;100.00;95948.94;4959439;28;20253;-76
2022/06/30 01:05:36;;;;;;;5.20;4.18;;;;;;;19.14;100.00;95951.19;4943547;29;20201;-76
2022/06/30 01:08:04;;;;;;;7.35;4.40;;;;;;;19.18;100.00;95951.41;4961493;28;20342;-76
2022/06/30 01:13:17;;;;;;;4.80;4.05;;;;;;;19.21;100.00;95950.84;4947123;28;20315;-76
2022/06/30 01:15:44;;;;;;;5.18;4.38;;;;;;;19.20;100.00;95950.03;4961009;28;20288;-76
2022/06/30 01:18:11;;;;;;;5.75;4.35;;;;;;;19.19;100.00;95950.31;4946935;28;20281;-77
2022/06/30 01:20:38;;;;;;;10.75;4.15;;;;;;;19.22;100.00;95947.78;4945610;28;20213;-76
2022/06/30 01:23:07;;;;;;;9.82;4.43;;;;;;;19.33;100.00;95934.78;4943237;28;20272;-76
2022/06/30 01:25:34;;;;;;;8.40;4.63;;;;;;;19.38;100.00;95937.47;4943554;28;20194;-76
2022/06/30 01:28:02;;;;;;;5.22;3.90;;;;;;;19.38;100.00;95937.47;4964532;28;20224;-76
2022/06/30 01:30:30;;;;;;;4.43;4.00;;;;;;;19.38;100.00;95933.91;4970426;28;20201;-77
2022/06/30 01:32:57;;;;;;;7.38;3.97;;;;;;;19.32;100.00;95927.66;4936900;28;20216;-77
2022/06/30 01:35:24;;;;;;;4.35;3.97;;;;;;;19.30;100.00;95923.63;4952015;28;20259;-76
2022/06/30 01:37:53;;;;;;;10.30;4.55;;;;;;;19.36;100.00;95925.97;4941354;28;20232;-77
2022/06/30 01:40:22;;;;;;;10.75;4.45;;;;;;;19.37;100.00;95924.88;4950080;28;20299;-76
2022/06/30 01:42:50;;;;;;;4.93;4.00;;;;;;;19.37;100.00;95922.16;4949840;28;20209;-76
2022/06/30 01:45:18;;;;;;;4.80;4.18;;;;;;;19.47;100.00;95913.81;4947977;28;20224;-76
2022/06/30 01:47:45;;;;;;;4.65;3.83;;;;;;;19.50;100.00;95915.94;4943252;28;20217;-76
2022/06/30 01:50:14;;;;;;;6.60;4.38;;;;;;;19.40;100.00;95918.78;4960307;28;20217;-76
2022/06/30 01:52:41;;;;;;;5.15;4.07;;;;;;;19.34;100.00;95914.50;4944544;28;20205;-77
2022/06/30 01:55:09;;;;;;;5.13;4.30;;;;;;;19.34;100.00;95909.03;4963628;28;20220;-76
2022/06/30 01:57:39;;;;;;;5.15;3.90;;;;;;;19.33;100.00;95901.13;4962590;28;20225;-76
2022/06/30 02:00:09;;;;;;;5.22;4.18;;;;;;;19.32;100.00;95905.78;4963059;28;20303;-76
2022/06/30 02:02:36;;;;;;;4.97;4.47;;;;;;;19.35;100.00;95902.44;4944263;28;20205;-77
2022/06/30 02:05:04;;;;;;;5.68;4.15;;;;;;;19.39;100.00;95900.75;4947766;28;20213;-76
2022/06/30 02:07:32;;;;;;;8.25;4.18;;;;;;;19.38;100.00;95898.31;4963087;28;20209;-76
2022/06/30 02:09:59;;;;;;;8.13;4.20;;;;;;;19.40;100.00;95891.41;4956832;28;20213;-77
2022/06/30 02:15:13;;;;;;;5.88;3.90;;;;;;;19.43;100.00;95893.56;4937987;28;20225;-76
2022/06/30 02:17:41;;;;;;;6.63;4.07;;;;;;;19.51;100.00;95892.09;4963635;28;20252;-76
2022/06/30 02:20:10;;;;;;;5.07;4.57;;;;;;;19.48;100.00;95887.25;4948558;28;20206;-76
2022/06/30 02:22:38;;;;;;;5.63;3.72;;;;;;;19.48;100.00;95888.03;4968951;28;20272;-77
2022/06/30 02:25:07;;;;;;;4.53;3.78;;;;;;;19.49;100.00;95897.06;4941385;28;20215;-76
2022/06/30 02:27:34;;;;;;;4.32;3.60;;;;;;;19.43;100.00;95896.31;4961208;28;20233;-77
2022/06/30 02:30:02;;;;;;;4.10;3.70;;;;;;;19.43;100.00;95896.31;4958625;28;20216;-77
2022/06/30 02:32:30;;;;;;;6.25;4.13;;;;;;;19.44;100.00;95891.66;4946860;28;20206;-77
2022/06/30 02:34:57;;;;;;;5.57;4.22;;;;;;;19.45;100.00;95896.00;4949438;28;20203;-78
2022/06/30 02:37:25;;;;;;;5.13;4.28;;;;;;;19.44;100.00;95900.69;4950497;28;20223;-77
2022/06/30 02:39:52;;;;;;;4.28;3.90;;;;;;;19.49;100.00;95897.88;4966584;28;20220;-76
2022/06/30 02:42:19;;;;;;;5.97;3.75;;;;;;;19.52;100.00;95896.47;4952425;28;20232;-77
2022/06/30 02:44:46;;;;;;;10.13;4.03;;;;;;;19.54;100.00;95895.06;4948331;28;20213;-77
2022/06/30 02:47:13;;;;;;;5.10;4.00;;;;;;;19.42;100.00;95891.13;4966164;28;20281;-77
2022/06/30 02:49:41;;;;;;;6.35;4.05;;;;;;;19.41;100.00;95893.03;4938530;29;20221;-76
2022/06/30 02:52:09;;;;;;;5.63;3.72;;;;;;;19.44;100.00;95889.72;4960670;28;20209;-76
2022/06/30 02:54:36;;;;;;;8.05;3.75;;;;;;;19.49;100.00;95888.84;4965099;28;20200;-77
2022/06/30 02:57:04;;;;;;;5.00;3.88;;;;;;;19.50;100.00;95891.28;4965167;28;20295;-78
2022/06/30 02:59:31;;;;;;;3.92;3.53;;;;;;;19.52;100.00;95883.59;4965026;28;20210;-78
2022/06/30 03:01:58;;;;;;;6.65;3.70;;;;;;;19.56;100.00;95879.13;4945184;28;20208;-76
2022/06/30 03:04:25;;;;;;;6.65;3.75;;;;;;;19.57;100.00;95880.78;4949618;28;20205;-76
2022/06/30 03:06:55;;;;;;;5.30;3.83;;;;;;;19.60;100.00;95882.09;4965790;28;20216;-77
2022/06/30 03:09:23;;;;;;;4.60;3.70;;;;;;;19.72;100.00;95867.97;4954269;28;20224;-77
2022/06/30 03:11:50;;;;;;;7.43;4.10;;;;;;;19.71;100.00;95858.09;4944526;28;20260;-76
2022/06/30 03:14:18;;;;;;;5.70;3.60;;;;;;;19.70;100.00;95856.47;4957319;28;20205;-76
2022/06/30 03:16:45;;;;;;;6.88;3.72;;;;;;;19.64;100.00;95853.84;4946155;28;20276;-76
2022/06/30 03:19:12;;;;;;;7.93;4.00;;;;;;;19.68;100.00;95858.69;4942465;28;20271;-77
2022/06/30 03:21:39;;;;;;;6.97;3.75;;;;;;;19.70;100.00;95859.22;4949911;28;20208;-76
2022/06/30 03:24:08;;;;;;;4.47;3.50;;;;;;;19.74;100.00;95857.50;4966021;28;20454;-77
2022/06/30 03:26:36;;;;;;;4.68;3.95;;;;;;;19.82;100.00;95854.09;4964094;28;20213;-76
2022/06/30 03:29:04;;;;;;;6.75;3.72;;;;;;;19.73;100.00;95866.84;4945093;28;20271;-77
2022/06/30 03:31:31;;;;;;;8.80;4.30;;;;;;;19.55;100.00;95868.50;4948031;28;20209;-76
2022/06/30 03:33:58;;;;;;;5.88;4.40;;;;;;;19.36;100.00;95851.25;4947514;28;20213;-77
2022/06/30 03:36:26;;;;;;;4.40;4.00;;;;;;;19.32;100.00;95855.69;4948409;28;20216;-77
2022/06/30 03:38:53;;;;;;;7.20;4.33;;;;;;;19.39;100.00;95856.16;4948191;28;20212;-76
2022/06/30 03:41:21;;;;;;;5.40;4.73;;;;;;;19.33;100.00;95858.13;4948929;28;20208;-77
2022/06/30 03:43:48;;;;;;;7.17;4.70;;;;;;;19.26;100.00;95857.69;4941245;28;20204;-77
2022/06/30 03:46:16;;;;;;;6.47;4.40;;;;;;;19.22;100.00;95857.47;4946558;28;20205;-77
2022/06/30 03:48:43;;;;;;;7.37;4.27;;;;;;;19.18;100.00;95847.41;4956327;28;20327;-77
2022/06/30 03:51:11;;;;;;;6.88;4.05;;;;;;;19.14;100.00;95855.41;4962736;28;20224;-77
2022/06/30 03:53:41;;;;;;;8.23;4.30;;;;;;;19.15;100.00;95839.78;4956920;28;20220;-77
2022/06/30 03:56:09;;;;;;;4.55;4.10;;;;;;;19.21;100.00;95841.38;4949648;28;20240;-78
2022/06/30 03:58:38;;;;;;;4.80;3.92;;;;;;;19.27;100.00;95840.16;4947282;28;20248;-76
2022/06/30 04:01:04;;;;;;;6.25;4.30;;;;;;;19.20;100.00;95828.78;4957882;28;20210;-77
2022/06/30 04:03:32;;;;;;;5.10;4.32;;;;;;;19.17;100.00;95837.59;4950514;28;20208;-77
2022/06/30 04:05:59;;;;;;;4.80;4.30;;;;;;;19.17;100.00;95832.09;4946089;28;20305;-77
2022/06/30 04:08:26;;;;;;;5.80;4.43;;;;;;;19.18;100.00;95840.03;4951730;28;20212;-77
2022/06/30 04:10:54;;;;;;;6.82;4.45;;;;;;;19.16;100.00;95822.25;4953215;28;20228;-76
2022/06/30 04:13:21;;;;;;;5.17;4.03;;;;;;;19.17;100.00;95821.16;4945152;28;20217;-77
2022/06/30 04:15:49;;;;;;;5.00;4.00;;;;;;;19.26;100.00;95822.13;4961210;28;20217;-77
2022/06/30 04:18:16;;;;;;;5.65;3.92;;;;;;;19.20;100.00;95818.66;4961207;28;20210;-76
2022/06/30 04:20:43;;;;;;;6.18;3.55;;;;;;;19.16;100.00;95811.31;4938952;28;20212;-77
2022/06/30 04:23:10;;;;;;;5.95;4.10;;;;;;;19.16;100.00;95812.13;4959655;28;20313;-77
2022/06/30 04:25:38;;;;;;;7.70;4.20;;;;;;;19.17;100.00;95815.69;4944337;28;20198;-76
2022/06/30 04:28:06;;;;;;;5.53;3.90;;;;;;;19.21;100.00;95812.06;4957886;28;20201;-76
2022/06/30 04:33:20;;;;;;;3.95;3.63;;;;;;;19.10;100.00;95820.72;4944496;28;20221;-77
2022/06/30 04:35:46;;;;;;;5.82;3.90;;;;;;;18.94;100.00;95816.59;4947237;28;20208;-77
2022/06/30 04:38:14;;;;;;;5.40;4.40;;;;;;;18.95;100.00;95829.97;4945889;28;20272;-76
2022/06/30 04:43:25;;;;;;;7.35;4.45;;;;;;;18.98;100.00;95817.63;4964129;28;20220;-76
2022/06/30 04:45:52;;;;;;;5.53;4.15;;;;;;;19.03;100.00;95821.09;4965666;28;20215;-76
2022/06/30 04:48:20;;;;;;;5.78;3.58;;;;;;;18.99;100.00;95819.25;4945896;28;20269;-76
2022/06/30 04:50:47;;;;;;;8.45;4.25;;;;;;;18.99;100.00;95820.06;4944538;28;20232;-78
2022/06/30 04:53:15;;;;;;;4.55;4.05;;;;;;;19.03;100.00;95825.75;4941127;28;20239;-78
2022/06/30 04:55:42;;;;;;;9.35;4.30;;;;;;;19.00;100.00;95815.41;4943239;28;20233;-78
2022/06/30 04:58:09;;;;;;;4.43;4.00;;;;;;;18.91;100.00;95812.50;4958478;28;20237;-78
2022/06/30 05:00:36;;;;;;;4.80;3.88;;;;;;;18.95;100.00;95823.69;4950635;28;20235;-77
2022/06/30 05:03:03;;;;;;;5.85;3.70;;;;;;;18.92;100.00;95805.13;4963405;28;20217;-78
2022/06/30 05:05:32;;;;;;;3.97;3.63;;;;;;;18.86;100.00;95812.59;4946692;28;20208;-78
2022/06/30 05:07:59;;;;;;;7.03;3.85;;;;;;;18.89;100.00;95821.00;4943807;28;20254;-78
2022/06/30 05:10:26;;;;;;;6.95;4.13;;;;;;;18.89;100.00;95821.00;4947380;28;20315;-78
2022/06/30 05:12:54;;;;;;;6.00;3.95;;;;;;;18.89;100.00;95820.19;4937866;28;20213;-78
2022/06/30 05:15:21;;;;;;;6.53;4.32;;;;;;;18.93;100.00;95832.19;4947606;28;20254;-78
2022/06/30 05:17:49;;;;;;;7.47;4.10;;;;;;;18.93;100.00;95826.72;4952797;28;20292;-78
2022/06/30 05:20:16;;;;;;;7.53;3.65;;;;;;;18.84;100.00;95812.91;4962849;28;20749;-78
2022/06/30 05:22:44;;;;;;;4.88;3.72;;;;;;;18.87;100.00;95817.78;4962139;28;20205;-78
2022/06/30 05:27:56;;;;;;;8.52;4.55;;;;;;;18.90;100.00;95808.16;4946698;28;20213;-78
2022/06/30 05:30:23;;;;;;;4.32;3.92;;;;;;;18.83;100.00;95800.31;4959345;28;20263;-78
2022/06/30 05:32:50;;;;;;;5.85;4.20;;;;;;;18.80;100.00;95798.16;4947769;28;20208;-78
2022/06/30 05:35:17;;;;;;;9.40;4.50;;;;;;;18.78;100.00;95802.31;4960035;28;20212;-78
2022/06/30 05:37:45;;;;;;;7.35;4.78;;;;;;;18.74;100.00;95796.63;4947717;28;20216;-78
2022/06/30 05:40:13;;;;;;;7.30;4.60;;;;;;;18.78;100.00;95797.66;4949488;28;20292;-78
2022/06/30 05:42:40;;;;;;;6.13;4.40;;;;;;;18.82;100.00;95797.88;4964417;28;20213;-78
2022/06/30 05:45:09;;;;;;;6.67;5.13;;;;;;;18.79;100.00;95788.38;4952464;28;20237;-78
2022/06/30 05:47:45;;;;;;;8.00;4.77;;;;;;;18.86;100.00;95793.44;4961428;28;20209;-78
2022/06/30 05:50:12;;;;;;;6.30;4.37;;;;;;;18.82;100.00;95793.22;4937680;28;20287;-78
2022/06/30 05:52:40;;;;;;;4.57;4.10;;;;;;;18.84;100.00;95792.94;4971920;28;20296;-78
2022/06/30 05:55:09;;;;;;;6.25;4.18;;;;;;;18.83;100.00;95796.78;4962371;28;20209;-78
2022/06/30 05:57:51;;;;;;;5.80;4.40;;;;;;;18.82;100.00;95795.97;4964694;28;20237;-78
2022/06/30 06:00:19;;;;;;;5.77;4.60;;;;;;;18.80;100.00;95789.16;4938243;28;20209;-78
2022/06/30 06:02:47;;;;;;;6.97;4.30;;;;;;;18.83;100.00;95789.38;4961025;28;20277;-78
2022/06/30 06:05:14;;;;;;;4.80;4.30;;;;;;;18.80;100.00;95776.28;4963746;28;20208;-78
2022/06/30 06:07:42;;;;;;;6.82;4.15;;;;;;;18.84;100.00;95780.06;4972213;28;20232;-78
2022/06/30 06:10:13;;;;;;;4.82;4.28;;;;;;;18.86;100.00;95780.59;4961530;28;20241;-79
2022/06/30 06:12:41;;;;;;;8.23;4.60;;;;;;;18.85;100.00;95776.22;4958623;28;20233;-77
2022/06/30 06:15:10;;;;;;;12.82;4.88;;;;;;;18.93;100.00;95771.19;4956203;28;20228;-78
2022/06/30 06:17:41;;;;;;;13.75;5.57;;;;;;;18.96;100.00;95768.69;4950015;28;20267;-78
2022/06/30 06:20:11;;;;;;;5.88;4.70;;;;;;;18.98;100.00;95771.09;4953522;28;20216;-78
2022/06/30 06:22:38;;;;;;;5.65;4.93;;;;;;;18.93;100.00;95768.47;4950009;28;20210;-78
2022/06/30 06:25:06;;;;;;;7.25;5.30;;;;;;;18.97;100.00;95766.78;4964533;28;20212;-78
2022/06/30 06:27:35;;;;;;;8.43;5.10;;;;;;;18.96;100.00;95756.94;4963411;28;20227;-78
2022/06/30 06:30:03;;;;;;;9.20;4.95;;;;;;;19.00;100.00;95757.94;4967650;28;20217;-78
2022/06/30 06:32:30;;;;;;;7.53;4.68;;;;;;;19.00;100.00;95752.47;4952605;28;20212;-78
2022/06/30 06:34:57;;;;;;;7.82;5.60;;;;;;;18.94;100.00;95746.28;4966358;28;20227;-78
2022/06/30 06:37:25;;;;;;;10.25;5.15;;;;;;;18.92;100.00;95748.50;4967810;28;20212;-78
2022/06/30 06:39:52;;;;;;;7.95;4.63;;;;;;;18.96;100.00;95743.25;4950426;28;20204;-78
2022/06/30 06:42:19;;;;;;;7.85;4.47;;;;;;;18.97;100.00;95745.66;4952665;28;20209;-78
2022/06/30 06:44:49;;;;;;;7.45;4.88;;;;;;;19.01;100.00;95754.91;4948898;28;20209;-78
2022/06/30 06:47:16;;;;;;;5.43;3.63;;;;;;;19.07;100.00;95758.38;4965940;28;20209;-74
2022/06/30 06:49:44;;;;;;;5.88;3.78;;;;;;;19.00;100.00;95742.34;4965780;28;20225;-74
2022/06/30 06:52:11;;;;;;;8.02;4.93;;;;;;;19.11;100.00;95745.72;4945299;28;20252;-74
2022/06/30 06:54:38;;;;;;;7.80;4.68;;;;;;;19.09;100.00;95750.69;4963312;28;20229;-74
2022/06/30 06:57:06;;;;;;;6.82;5.32;;;;;;;19.10;100.00;95749.56;4941009;28;20225;-74
2022/06/30 06:59:34;;;;;;;5.82;3.63;;;;;;;19.13;100.00;95752.53;4945291;28;20227;-74
2022/06/30 07:02:03;;;;;;;4.87;3.60;;;;;;;19.13;100.00;95749.00;4958132;28;20209;-74
2022/06/30 07:04:30;;;;;;;6.82;3.67;;;;;;;19.18;100.00;95746.16;4963193;28;20231;-75
2022/06/30 07:06:57;;;;;;;6.60;3.88;;;;;;;19.21;100.00;95751.03;4946716;28;20211;-73
2022/06/30 07:09:24;;;;;;;6.50;4.30;;;;;;;19.26;100.00;95745.47;4960968;28;20276;-73
2022/06/30 07:11:51;;;;;;;7.32;4.40;;;;;;;19.31;100.00;95745.38;4958824;28;20235;-73
2022/06/30 07:14:18;;;;;;;5.18;3.72;;;;;;;19.31;100.00;95753.59;4968111;28;20250;-73
2022/06/30 07:16:45;;;;;;;5.55;3.95;;;;;;;19.21;100.00;95753.78;4947614;28;20205;-75
2022/06/30 07:19:14;;;;;;;5.95;4.57;;;;;;;19.31;100.00;95741.84;4943886;28;20304;-74
2022/06/30 07:21:41;;;;;;;9.30;3.80;;;;;;;19.71;100.00;95752.09;4959922;28;20213;-73
2022/06/30 07:24:08;;;;;;;6.18;3.50;;;;;;;20.27;100.00;95751.78;4945566;28;20217;-74
2022/06/30 07:26:35;;;;;;;7.05;3.10;;;;;;;20.68;100.00;95749.00;4971659;28;20201;-74
2022/06/30 07:29:03;;;;;;;4.22;3.22;;;;;;;21.10;100.00;95739.50;4972545;28;20294;-79
2022/06/30 07:31:30;;;;;;;4.60;3.25;;;;;;;21.72;100.00;95742.38;4949975;28;20230;-79
2022/06/30 07:33:57;;;;;;;4.00;3.47;;;;;;;22.33;100.00;95748.13;4946280;28;20378;-79
2022/06/30 07:36:26;;;;;;;6.40;3.08;;;;;;;22.63;100.00;95734.25;4961414;28;20208;-79
2022/06/30 07:38:53;;;;;;;5.70;3.35;;;;;;;22.96;100.00;95745.69;4964454;28;20209;-79
2022/06/30 07:41:21;;;;;;;3.50;3.20;;;;;;;22.88;100.00;95746.47;4952360;28;20228;-79
2022/06/30 07:43:48;;;;;;;4.43;3.20;;;;;;;23.19;97.58;95738.06;4959220;28;20206;-79
2022/06/30 07:46:15;;;;;;;4.53;3.33;;;;;;;23.57;94.03;95726.34;4948976;28;20217;-80
2022/06/30 07:48:43;;;;;;;3.75;3.35;;;;;;;23.56;94.83;95717.25;4961600;28;20252;-79
2022/06/30 07:51:10;;;;;;;9.35;4.60;;;;;;;23.74;94.43;95721.59;4945994;28;20320;-79
2022/06/30 07:53:38;;;;;;;7.30;5.13;;;;;;;24.07;93.51;95721.78;4946469;28;20216;-79
2022/06/30 07:56:06;;;;;;;8.43;5.10;;;;;;;24.54;91.17;95724.50;4949749;28;20232;-79
2022/06/30 07:58:33;;;;;;;8.43;4.82;;;;;;;24.77;88.78;95716.72;4964136;28;20233;-79
2022/06/30 08:01:01;;;;;;;7.78;5.25;;;;;;;24.96;88.68;95708.00;4968213;28;20201;-80
2022/06/30 08:03:28;;;;;;;5.03;4.03;;;;;;;25.23;86.06;95712.97;4961925;28;20209;-79
2022/06/30 08:05:55;;;;;;;10.52;5.13;;;;;;;25.46;83.20;95713.38;4944768;28;20233;-79
2022/06/30 08:08:22;;;;;;;7.35;4.05;;;;;;;25.60;82.45;95706.41;4946717;28;20213;-79
2022/06/30 08:10:52;;;;;;;9.35;4.68;;;;;;;25.88;81.04;95705.78;4942486;28;20291;-80
2022/06/30 08:13:19;;;;;;;5.47;3.92;;;;;;;26.14;78.93;95706.28;4961920;28;20272;-80
2022/06/30 08:15:46;;;;;;;6.35;4.45;;;;;;;26.26;76.40;95706.34;4959468;28;20206;-80
2022/06/30 08:18:13;;;;;;;7.85;3.92;;;;;;;26.34;75.43;95705.41;4961184;28;20208;-80
2022/06/30 08:20:40;;;;;;;6.65;3.83;;;;;;;26.45;75.59;95702.97;4946306;28;20211;-80
2022/06/30 08:23:08;;;;;;;7.35;3.97;;;;;;;26.53;73.74;95695.72;4947590;28;20213;-80
2022/06/30 08:25:35;;;;;;;7.97;4.03;;;;;;;26.54;74.18;95702.84;4947945;28;20223;-80
2022/06/30 08:28:08;;;;;;;5.78;4.10;;;;;;;26.84;71.81;95704.19;4950131;28;20299;-80
2022/06/30 08:30:35;;;;;;;9.07;4.50;;;;;;;26.63;71.50;95709.06;4963251;28;20225;-80
2022/06/30 08:33:03;;;;;;;9.52;4.28;;;;;;;26.31;72.07;95703.31;4949936;28;20220;-80
2022/06/30 08:35:30;;;;;;;5.15;4.28;;;;;;;26.12;74.96;95711.34;4959712;28;20216;-80
2022/06/30 08:37:57;;;;;;;5.32;3.80;;;;;;;25.91;75.22;95713.41;4947003;28;20205;-76
2022/06/30 08:43:10;;;;;;;6.40;4.30;;;;;;;25.50;76.91;95709.63;4953336;28;20213;-76
2022/06/30 08:45:37;;;;;;;6.38;4.18;;;;;;;25.77;77.55;95712.94;4948198;28;20200;-80
2022/06/30 08:48:05;;;;;;;6.63;4.00;;;;;;;26.18;74.36;95704.47;4947550;28;20221;-80
2022/06/30 08:50:33;;;;;;;10.25;4.68;;;;;;;26.40;74.47;95694.09;4945822;28;20240;-79
2022/06/30 08:53:04;;;;;;;5.25;4.00;;;;;;;26.36;75.05;95703.09;4948324;28;20236;-78
2022/06/30 08:55:33;;;;;;;5.22;4.03;;;;;;;26.11;75.65;95695.13;4947135;28;20233;-80
2022/06/30 08:58:03;;;;;;;11.18;4.45;;;;;;;26.37;76.13;95690.03;4965236;28;20237;-79
2022/06/30 09:00:33;;;;;;;6.65;3.78;;;;;;;26.69;73.22;95699.38;4951183;28;20547;-80
2022/06/30 09:03:01;;;;;;;7.13;4.15;;;;;;;26.58;73.08;95693.50;4946168;28;20279;-80
2022/06/30 09:05:28;;;;;;;7.78;4.13;;;;;;;26.41;74.55;95690.97;4962606;28;20228;-80
2022/06/30 09:07:55;;;;;;;8.15;3.80;;;;;;;26.33;73.99;95694.69;4964442;28;20280;-79
2022/06/30 09:10:25;;;;;;;4.05;3.42;;;;;;;26.30;74.73;95698.13;4939466;29;20224;-80
2022/06/30 09:12:59;;;;;;;7.47;3.83;;;;;;;26.23;74.32;95706.97;4959139;28;20208;-79
2022/06/30 09:15:26;;;;;;;7.13;3.65;;;;;;;26.10;73.71;95691.53;4941208;28;20213;-80
2022/06/30 09:17:54;;;;;;;4.18;3.80;;;;;;;26.01;74.12;95693.59;4960507;28;20201;-79
2022/06/30 09:20:34;;;;;;;4.30;3.90;;;;;;;25.81;74.36;95711.91;4949559;28;20212;-79
2022/06/30 09:23:02;;;;;;;5.95;4.47;;;;;;;25.15;81.03;95708.31;4940444;28;20296;-79
2022/06/30 09:25:33;;;;;;;7.65;4.43;;;;;;;24.94;83.58;95708.31;4961141;28;20200;-79
2022/06/30 09:28:00;;;;;;;7.43;4.40;;;;;;;24.89;85.92;95709.31;4965066;28;20212;-79
2022/06/30 09:30:27;;;;;;;6.47;4.55;;;;;;;24.94;88.42;95713.03;4968714;28;20201;-79
2022/06/30 09:32:57;;;;;;;5.90;3.97;;;;;;;24.89;87.99;95703.78;4970134;28;20219;-79
2022/06/30 09:35:26;;;;;;;6.25;4.32;;;;;;;24.91;85.87;95716.47;4953554;28;20209;-79
2022/06/30 09:38:02;;;;;;;4.82;4.10;;;;;;;24.76;86.50;95715.91;4953645;28;20212;-79
2022/06/30 09:40:32;;;;;;;6.78;4.28;;;;;;;24.73;88.74;95727.63;4955853;28;20208;-79
2022/06/30 09:43:00;;;;;;;6.35;3.85;;;;;;;24.45;91.85;95724.56;4953902;28;20237;-79
2022/06/30 09:45:36;;;;;;;6.18;4.05;;;;;;;24.42;93.56;95738.19;4968991;28;20224;-79
2022/06/30 09:48:06;;;;;;;6.88;3.92;;;;;;;24.30;94.42;95732.59;4953355;28;20212;-79
2022/06/30 09:50:33;;;;;;;6.40;4.57;;;;;;;24.09;96.34;95738.81;4944312;28;20289;-79
2022/06/30 09:53:06;;;;;;;5.13;4.10;;;;;;;23.93;99.98;95736.94;4952289;28;20214;-79
2022/06/30 09:55:39;;;;;;;6.00;4.10;;;;;;;23.70;100.00;95741.88;4972190;28;20279;-79
2022/06/30 09:58:07;;;;;;;7.30;4.32;;;;;;;23.58;100.00;95748.06;4952840;28;20239;-79
2022/06/30 10:00:44;;;;;;;7.18;4.10;;;;;;;23.68;100.00;95760.69;4969786;28;20208;-79
2022/06/30 10:03:13;;;;;;;8.32;4.60;;;;;;;23.61;100.00;95755.69;4947881;28;20209;-79
2022/06/30 10:05:44;;;;;;;7.07;4.65;;;;;;;23.57;100.00;95757.47;4953482;28;20211;-79
2022/06/30 10:08:13;;;;;;;9.02;4.80;;;;;;;23.54;100.00;95757.34;4947217;28;20208;-79
2022/06/30 10:10:42;;;;;;;5.85;4.32;;;;;;;23.55;100.00;95750.69;4954527;28;20204;-79
2022/06/30 10:13:14;;;;;;;9.70;4.97;;;;;;;23.63;100.00;95752.63;4956420;28;20205;-79
2022/06/30 10:15:45;;;;;;;5.25;3.90;;;;;;;23.53;100.00;95758.47;4953113;28;20247;-79
2022/06/30 10:18:14;;;;;;;6.65;4.20;;;;;;;23.45;100.00;95759.25;4955023;28;20221;-79
2022/06/30 10:20:42;;;;;;;5.13;4.00;;;;;;;23.33;100.00;95768.97;4955933;28;20295;-79
2022/06/30 10:23:09;;;;;;;6.78;4.60;;;;;;;23.18;100.00;95772.25;4958958;28;20228;-79
2022/06/30 10:25:37;;;;;;;5.18;4.40;;;;;;;22.94;100.00;95771.91;4951900;28;20205;-79
2022/06/30 10:28:05;;;;;;;5.38;4.72;;;;;;;23.00;100.00;95773.38;4952611;28;20204;-79
2022/06/30 10:30:43;;;;;;;6.95;4.93;;;;;;;23.32;100.00;95770.13;4951430;28;20270;-79
2022/06/30 10:33:18;;;;;;;6.18;4.20;;;;;;;23.63;100.00;95783.75;4938635;29;20223;-79
2022/06/30 10:35:49;;;;;;;9.35;4.82;;;;;;;23.88;100.00;95793.09;4978994;28;20205;-79
2022/06/30 10:38:26;;;;;;;9.38;4.75;;;;;;;24.00;100.00;95801.47;4951390;28;20224;-79
2022/06/30 10:40:59;;;;;;;7.57;5.63;;;;;;;23.96;100.00;95808.78;4948659;28;20228;-79
2022/06/30 10:43:27;;;;;;;9.00;4.85;;;;;;;23.70;100.00;95822.63;4971012;28;20232;-79
2022/06/30 10:46:02;;;;;;;6.65;4.50;;;;;;;23.53;100.00;95828.16;4951066;28;20220;-79
2022/06/30 10:48:50;;;;;;;8.15;5.35;;;;;;;23.44;100.00;95821.00;4966004;28;20308;-79
2022/06/30 10:51:18;;;;;;;5.82;5.15;;;;;;;23.51;100.00;95818.59;4970679;28;20228;-79
2022/06/30 10:53:50;;;;;;;7.45;4.57;;;;;;;23.60;100.00;95803.69;4971016;28;20204;-79
2022/06/30 10:56:18;;;;;;;6.15;4.93;;;;;;;24.00;100.00;95793.19;4968180;28;20244;-79
2022/06/30 10:59:07;;;;;;;7.53;4.43;;;;;;;24.40;95.22;95791.00;4953468;28;20237;-79
2022/06/30 11:01:35;;;;;;;5.28;4.40;;;;;;;24.92;92.24;95785.19;4970107;28;20205;-79
2022/06/30 11:04:05;;;;;;;6.97;4.50;;;;;;;25.39;86.27;95776.69;4951629;28;20239;-79
2022/06/30 11:06:58;;;;;;;7.00;4.28;;;;;;;25.70;84.01;95771.53;4952196;28;20221;-79
2022/06/30 11:10:05;;;;;;;7.05;4.63;;;;;;;26.20;79.75;95760.25;4952878;28;20307;-79
2022/06/30 11:13:08;;;;;;;6.07;4.10;;;;;;;26.32;77.44;95757.53;4945036;28;20235;-79
2022/06/30 11:15:55;;;;;;;7.43;4.82;;;;;;;26.40;79.67;95754.97;4923491;28;20311;-79
2022/06/30 11:18:24;;;;;;;6.15;4.35;;;;;;;26.82;76.49;95747.22;4944264;28;20223;-79
2022/06/30 11:20:54;;;;;;;5.30;4.25;;;;;;;27.23;73.10;95743.34;4959168;28;20224;-79
2022/06/30 11:23:22;;;;;;;4.43;4.03;;;;;;;27.38;69.69;95737.06;4950998;28;20209;-79
2022/06/30 11:28:38;;;;;;;4.80;3.72;;;;;;;27.55;67.08;95728.47;4947673;28;20215;-79
2022/06/30 11:31:05;;;;;;;6.75;3.78;;;;;;;27.88;66.52;95721.81;4949025;28;20302;-79
2022/06/30 11:33:33;;;;;;;6.85;3.80;;;;;;;28.19;64.06;95714.34;4969000;28;20213;-79
2022/06/30 11:36:09;;;;;;;3.97;3.13;;;;;;;28.38;65.29;95699.75;4944937;28;20205;-79
2022/06/30 11:38:37;;;;;;;7.35;4.03;;;;;;;28.60;64.63;95701.03;4948195;28;20259;-79
2022/06/30 11:43:52;;;;;;;4.65;4.10;;;;;;;28.88;67.56;95695.38;4951226;28;20213;-78
2022/06/30 11:46:19;;;;;;;4.40;4.00;;;;;;;29.10;66.22;95691.06;4950763;28;20268;-78
2022/06/30 11:48:47;;;;;;;4.75;4.35;;;;;;;28.96;66.15;95694.34;4951257;28;20232;-79
2022/06/30 11:51:16;;;;;;;6.63;4.35;;;;;;;28.80;66.54;95694.41;4949539;28;20236;-79
2022/06/30 11:53:45;;;;;;;8.70;4.30;;;;;;;28.86;66.28;95704.06;4946668;28;20208;-79
2022/06/30 11:56:12;;;;;;;5.97;4.03;;;;;;;28.43;67.26;95695.88;4949912;28;20229;-79